Impacts METAR Board INFO
IDs:

KMCO - Orlando Intl, FL, US

Updated at: 0828 UTC 22 Jan 2018
Potential Impact None Slight Moderate High
Time21/20Z 21/21Z 21/22Z 21/23Z 22/00Z 22/01Z 22/02Z 22/03Z 22/04Z 22/05Z 22/06Z 22/07Z 22/08Z
VIS10 10 10 10 10 10 10 10 10 10 10 10 10
CIG45 -- -- -- -- -- -- -- -- -- 26 -- --
CoverBKNSCTFEWFEWCLRCLRCLRFEWFEWFEWBKNSCTSCT
FltCatVFRVFRVFRVFRVFRVFRVFRVFRVFRVFRMVFRVFRVFR
WX--------------------------
WDir1101101001001009060706060501030
WSpd9 11 10 8 7 6 7 6 5 6 3 3 3
WGst-- -- -- -- -- -- -- -- -- -- -- -- --
Raw hourly METARs
KMCO 211953Z 11009KT 10SM BKN045 25/14 A3015 RMK AO2 SLP207 T02500139
KMCO 212053Z 11011KT 10SM SCT045 24/14 A3015 RMK AO2 SLP207 T02440139 56017
KMCO 212153Z 10010KT 10SM FEW045 23/14 A3015 RMK AO2 SLP209 T02330144
KMCO 212253Z 10008KT 10SM FEW070 21/15 A3016 RMK AO2 SLP212 T02110150
KMCO 212353Z 10007KT 10SM CLR 19/16 A3017 RMK AO2 SLP215 T01940156 10256 20194 53009
KMCO 220053Z 09006KT 10SM CLR 18/16 A3018 RMK AO2 SLP220 T01830156
KMCO 220153Z 06007KT 10SM CLR 17/15 A3019 RMK AO2 SLP220 T01670150
KMCO 220253Z 07006KT 10SM FEW025 FEW120 16/15 A3019 RMK AO2 SLP221 T01610150 51006
KMCO 220353Z 06005KT 10SM FEW025 16/15 A3019 RMK AO2 SLP221 T01560150
KMCO 220453Z 06006KT 10SM FEW025 16/15 A3017 RMK AO2 SLP215 T01560150 402560128
KMCO 220553Z 05003KT 10SM BKN026 16/16 A3016 RMK AO2 SLP209 T01560156 10194 20150 58012
KMCO 220653Z 01003KT 10SM SCT030 15/14 A3015 RMK AO2 SLP206 T01500144
KMCO 220753Z 03003KT 10SM SCT028 14/14 A3013 RMK AO2 SLP202 T01390139